Time;durP1;ratioP1;P1;durP2;ratioP2;P2;SDS_P1;SDS_P2;PMS_P1;PMS_P2;Temp;Humidity;BMP_temperature;BMP_pressure;BME280_temperature;BME280_humidity;BME280_pressure;Samples;Min_cycle;Max_cycle;Signal;HPM_P1;HPM_P2
2022/08/06 00:00:02;;;;;;;;;;;19.60;67.50;;;;;;4861652;29;20027;-71
2022/08/06 00:02:38;;;;;;;;;;;19.50;67.70;;;;;;4869041;29;19924;-71
2022/08/06 00:05:06;;;;;;;;;;;19.40;67.70;;;;;;4875594;29;19995;-71
2022/08/06 00:07:32;;;;;;;;;;;19.30;67.90;;;;;;4877473;29;19924;-71
2022/08/06 00:09:59;;;;;;;;;;;19.30;68.10;;;;;;4877631;29;20018;-72
2022/08/06 00:12:26;;;;;;;;;;;19.30;68.10;;;;;;4879726;29;19932;-70
2022/08/06 00:14:57;;;;;;;;;;;19.30;68.20;;;;;;4854168;29;19928;-71
2022/08/06 00:17:24;;;;;;;;;;;19.20;68.30;;;;;;4865661;29;19934;-72
2022/08/06 00:19:54;;;;;;;;;;;19.20;68.30;;;;;;4869953;29;20022;-71
2022/08/06 00:22:21;;;;;;;;;;;19.20;68.40;;;;;;4868747;29;19923;-72
2022/08/06 00:24:48;;;;;;;;;;;19.10;68.50;;;;;;4871274;29;19931;-71
2022/08/06 00:27:14;;;;;;;;;;;19.10;68.70;;;;;;4867730;29;20030;-71
2022/08/06 00:29:41;;;;;;;;;;;19.10;68.70;;;;;;4875273;29;19923;-70
2022/08/06 00:32:09;;;;;;;;;;;19.00;68.70;;;;;;4863709;29;19931;-71
2022/08/06 00:34:36;;;;;;;;;;;19.10;68.80;;;;;;4867163;29;20034;-72
2022/08/06 00:37:03;;;;;;;;;;;19.00;68.80;;;;;;4876063;29;20006;-71
2022/08/06 00:39:30;;;;;;;;;;;19.00;68.80;;;;;;4875033;29;19924;-71
2022/08/06 00:41:56;;;;;;;;;;;19.00;68.80;;;;;;4877558;29;19975;-71
2022/08/06 00:44:23;;;;;;;;;;;18.90;68.90;;;;;;4869695;29;19931;-72
2022/08/06 00:46:50;;;;;;;;;;;18.90;68.90;;;;;;4871096;29;19938;-71
2022/08/06 00:49:18;;;;;;;;;;;18.90;69.10;;;;;;4866864;29;19928;-71
2022/08/06 00:51:45;;;;;;;;;;;18.80;69.20;;;;;;4874265;29;20393;-72
2022/08/06 00:54:11;;;;;;;;;;;18.90;69.20;;;;;;4873333;29;19930;-71
2022/08/06 00:56:38;;;;;;;;;;;18.80;69.20;;;;;;4873325;29;19931;-71
2022/08/06 00:59:05;;;;;;;;;;;18.80;69.20;;;;;;4874705;29;19928;-71
2022/08/06 01:01:32;;;;;;;;;;;18.80;69.40;;;;;;4865253;29;19988;-71
2022/08/06 01:03:59;;;;;;;;;;;18.70;69.30;;;;;;4867229;29;19924;-71
2022/08/06 01:06:27;;;;;;;;;;;18.60;69.50;;;;;;4875426;29;19947;-70
2022/08/06 01:08:54;;;;;;;;;;;18.60;69.60;;;;;;4875334;29;19954;-72
2022/08/06 01:11:21;;;;;;;;;;;18.60;69.70;;;;;;4870074;29;19930;-71
2022/08/06 01:13:47;;;;;;;;;;;18.60;69.60;;;;;;4872592;29;19931;-72
2022/08/06 01:16:16;;;;;;;;;;;18.70;69.60;;;;;;4873899;29;20010;-72
2022/08/06 01:18:46;;;;;;;;;;;18.50;69.80;;;;;;4869708;29;20389;-71
2022/08/06 01:21:20;;;;;;;;;;;18.50;70.00;;;;;;4870163;29;19959;-72
2022/08/06 01:24:03;;;;;;;;;;;18.50;70.00;;;;;;4876079;29;19924;-72
2022/08/06 01:26:35;;;;;;;;;;;18.40;70.10;;;;;;4873062;29;19928;-72
2022/08/06 01:29:05;;;;;;;;;;;18.50;70.20;;;;;;4872024;29;19930;-72
2022/08/06 01:31:34;;;;;;;;;;;18.40;70.20;;;;;;4875974;29;20304;-71
2022/08/06 01:34:04;;;;;;;;;;;18.30;70.30;;;;;;4870670;29;20259;-72
2022/08/06 01:36:32;;;;;;;;;;;18.30;70.40;;;;;;4871435;29;20380;-71
2022/08/06 01:39:00;;;;;;;;;;;18.30;70.50;;;;;;4871652;29;19924;-72
2022/08/06 01:41:42;;;;;;;;;;;18.30;70.60;;;;;;4866287;29;20007;-72
2022/08/06 01:44:11;;;;;;;;;;;18.20;70.70;;;;;;4867397;29;19983;-70
2022/08/06 01:46:40;;;;;;;;;;;18.20;70.70;;;;;;4866405;29;19938;-71
2022/08/06 01:49:07;;;;;;;;;;;18.20;70.70;;;;;;4868538;29;19928;-70
2022/08/06 01:51:35;;;;;;;;;;;18.20;70.70;;;;;;4868257;29;20470;-71
2022/08/06 01:54:03;;;;;;;;;;;18.20;70.80;;;;;;4871962;29;19928;-72
2022/08/06 01:56:31;;;;;;;;;;;18.20;70.90;;;;;;4872164;29;19923;-70
2022/08/06 01:58:58;;;;;;;;;;;18.20;70.80;;;;;;4873240;29;19923;-71
2022/08/06 02:01:27;;;;;;;;;;;18.20;70.80;;;;;;4869240;29;19930;-72
2022/08/06 02:03:55;;;;;;;;;;;18.20;70.70;;;;;;4872194;29;19931;-73
2022/08/06 02:06:24;;;;;;;;;;;18.10;70.80;;;;;;4877766;29;19930;-71
2022/08/06 02:08:53;;;;;;;;;;;18.10;70.90;;;;;;4865751;29;19954;-71
2022/08/06 02:11:20;;;;;;;;;;;18.10;70.90;;;;;;4864569;29;19956;-70
2022/08/06 02:13:47;;;;;;;;;;;18.10;71.00;;;;;;4866877;29;19931;-72
2022/08/06 02:16:15;;;;;;;;;;;18.00;71.00;;;;;;4875230;29;19930;-71
2022/08/06 02:18:45;;;;;;;;;;;18.00;70.90;;;;;;4869074;29;20382;-69
2022/08/06 02:21:15;;;;;;;;;;;17.90;71.00;;;;;;4872709;29;20113;-72
2022/08/06 02:23:43;;;;;;;;;;;18.00;71.00;;;;;;4877377;29;19938;-72
2022/08/06 02:26:11;;;;;;;;;;;18.00;70.90;;;;;;4870853;29;19924;-71
2022/08/06 02:28:39;;;;;;;;;;;17.90;70.80;;;;;;4872452;29;19935;-71
2022/08/06 02:31:06;;;;;;;;;;;17.90;71.00;;;;;;4867134;29;20297;-71
2022/08/06 02:33:33;;;;;;;;;;;17.80;70.90;;;;;;4871910;29;19931;-73
2022/08/06 02:36:03;;;;;;;;;;;17.80;71.00;;;;;;4875213;29;19930;-72
2022/08/06 02:38:34;;;;;;;;;;;17.70;71.10;;;;;;4875313;29;19924;-72
2022/08/06 02:41:02;;;;;;;;;;;17.70;71.20;;;;;;4877349;29;19930;-71
2022/08/06 02:43:32;;;;;;;;;;;17.60;71.30;;;;;;4878097;29;20243;-73
2022/08/06 02:46:01;;;;;;;;;;;17.60;71.30;;;;;;4872515;29;19928;-71
2022/08/06 02:48:31;;;;;;;;;;;17.60;71.40;;;;;;4876326;29;19924;-73
2022/08/06 02:50:58;;;;;;;;;;;17.50;71.60;;;;;;4873883;29;19923;-74
2022/08/06 02:53:29;;;;;;;;;;;17.50;71.80;;;;;;4867044;29;19927;-71
2022/08/06 02:55:57;;;;;;;;;;;17.50;71.70;;;;;;4875630;29;19924;-73
2022/08/06 02:58:29;;;;;;;;;;;17.50;71.80;;;;;;4874261;29;19956;-72
2022/08/06 03:00:57;;;;;;;;;;;17.50;71.90;;;;;;4873338;29;19924;-72
2022/08/06 03:03:25;;;;;;;;;;;17.40;71.90;;;;;;4876333;29;19928;-73
2022/08/06 03:05:53;;;;;;;;;;;17.40;71.90;;;;;;4871105;29;19928;-73
2022/08/06 03:08:22;;;;;;;;;;;17.40;71.90;;;;;;4874459;29;19923;-73
2022/08/06 03:10:51;;;;;;;;;;;17.40;71.90;;;;;;4862481;29;19960;-72
2022/08/06 03:13:18;;;;;;;;;;;17.30;71.80;;;;;;4874082;29;19928;-74
2022/08/06 03:15:46;;;;;;;;;;;17.30;71.80;;;;;;4872761;29;19928;-73
2022/08/06 03:18:13;;;;;;;;;;;17.20;71.70;;;;;;4867168;29;19924;-73
2022/08/06 03:20:41;;;;;;;;;;;17.20;71.80;;;;;;4879553;29;20278;-72
2022/08/06 03:23:09;;;;;;;;;;;17.10;71.80;;;;;;4873172;29;19932;-75
2022/08/06 03:25:37;;;;;;;;;;;17.10;71.70;;;;;;4867870;29;19924;-72
2022/08/06 03:28:05;;;;;;;;;;;17.10;71.50;;;;;;4873205;29;19946;-71
2022/08/06 03:30:32;;;;;;;;;;;17.10;71.60;;;;;;4874296;29;20358;-71
2022/08/06 03:33:00;;;;;;;;;;;17.00;71.70;;;;;;4870855;29;20023;-71
2022/08/06 03:35:27;;;;;;;;;;;17.00;71.70;;;;;;4864806;29;19971;-71
2022/08/06 03:37:54;;;;;;;;;;;17.00;71.70;;;;;;4878332;29;20251;-70
2022/08/06 03:40:21;;;;;;;;;;;17.00;71.70;;;;;;4872618;29;19924;-71
2022/08/06 03:42:48;;;;;;;;;;;16.90;71.70;;;;;;4872595;29;19924;-71
2022/08/06 03:45:16;;;;;;;;;;;16.90;71.70;;;;;;4872581;29;19924;-69
2022/08/06 03:47:47;;;;;;;;;;;16.90;71.80;;;;;;4865082;29;19931;-70
2022/08/06 03:50:15;;;;;;;;;;;16.80;71.90;;;;;;4869135;29;19932;-71
2022/08/06 03:52:45;;;;;;;;;;;16.80;71.90;;;;;;4876011;29;19938;-70
2022/08/06 03:55:15;;;;;;;;;;;16.80;71.90;;;;;;4873418;29;19923;-69
2022/08/06 03:57:42;;;;;;;;;;;16.80;72.00;;;;;;4871897;29;19938;-71
2022/08/06 04:00:10;;;;;;;;;;;16.80;72.00;;;;;;4873169;29;19935;-72
2022/08/06 04:02:43;;;;;;;;;;;16.70;72.00;;;;;;4873013;29;19928;-71
2022/08/06 04:05:11;;;;;;;;;;;16.60;72.10;;;;;;4870948;29;19927;-71
2022/08/06 04:07:38;;;;;;;;;;;16.60;72.20;;;;;;4874232;29;19946;-72
2022/08/06 04:10:05;;;;;;;;;;;16.60;72.20;;;;;;4871352;29;19939;-71
2022/08/06 04:12:32;;;;;;;;;;;16.50;72.20;;;;;;4872506;29;19924;-72
2022/08/06 04:14:59;;;;;;;;;;;16.60;72.30;;;;;;4872550;29;19927;-70
2022/08/06 04:17:27;;;;;;;;;;;16.60;72.40;;;;;;4870723;29;19930;-72
2022/08/06 04:19:56;;;;;;;;;;;16.60;72.40;;;;;;4875643;29;20351;-71
2022/08/06 04:22:23;;;;;;;;;;;16.50;72.60;;;;;;4878210;29;19923;-71
2022/08/06 04:24:49;;;;;;;;;;;16.50;72.70;;;;;;4877445;29;19927;-71
2022/08/06 04:27:17;;;;;;;;;;;16.50;72.70;;;;;;4868749;29;19924;-71
2022/08/06 04:29:44;;;;;;;;;;;16.50;72.70;;;;;;4859999;29;19931;-70
2022/08/06 04:32:13;;;;;;;;;;;16.50;72.70;;;;;;4869644;29;20010;-69
2022/08/06 04:34:41;;;;;;;;;;;16.50;72.70;;;;;;4873350;29;19943;-70
2022/08/06 04:37:09;;;;;;;;;;;16.50;72.60;;;;;;4878348;29;19923;-71
2022/08/06 04:39:36;;;;;;;;;;;16.40;72.80;;;;;;4877064;29;19928;-71
2022/08/06 04:42:03;;;;;;;;;;;16.40;72.70;;;;;;4877133;29;19977;-70
2022/08/06 04:44:30;;;;;;;;;;;16.40;72.70;;;;;;4874131;29;19934;-71
2022/08/06 04:46:58;;;;;;;;;;;16.40;72.60;;;;;;4876712;29;19927;-71
2022/08/06 04:49:25;;;;;;;;;;;16.40;72.80;;;;;;4875591;29;19924;-72
2022/08/06 04:51:51;;;;;;;;;;;16.40;72.90;;;;;;4877264;29;19939;-71
2022/08/06 04:54:20;;;;;;;;;;;16.30;72.90;;;;;;4877410;29;19935;-72
2022/08/06 04:56:46;;;;;;;;;;;16.30;73.10;;;;;;4876287;29;19923;-71
2022/08/06 04:59:13;;;;;;;;;;;16.30;73.00;;;;;;4875417;29;19995;-71
2022/08/06 05:01:40;;;;;;;;;;;16.30;73.00;;;;;;4873997;29;20178;-71
2022/08/06 05:04:07;;;;;;;;;;;16.40;73.00;;;;;;4876761;29;19928;-71
2022/08/06 05:06:37;;;;;;;;;;;16.40;72.80;;;;;;4875723;29;19935;-69
2022/08/06 05:09:07;;;;;;;;;;;16.40;72.70;;;;;;4870894;29;19924;-72
2022/08/06 05:11:40;;;;;;;;;;;16.40;72.80;;;;;;4874916;29;19923;-71
2022/08/06 05:14:09;;;;;;;;;;;16.40;72.90;;;;;;4868899;29;19980;-71
2022/08/06 05:16:39;;;;;;;;;;;16.40;72.90;;;;;;4872092;29;19928;-71
2022/08/06 05:19:10;;;;;;;;;;;16.50;72.90;;;;;;4875547;29;20306;-71
2022/08/06 05:21:38;;;;;;;;;;;16.40;72.90;;;;;;4874633;29;19930;-72
2022/08/06 05:24:05;;;;;;;;;;;16.40;72.90;;;;;;4873057;29;19923;-71
2022/08/06 05:26:33;;;;;;;;;;;16.40;72.90;;;;;;4876070;29;19928;-71
2022/08/06 05:29:01;;;;;;;;;;;16.40;73.00;;;;;;4873309;29;20378;-71
2022/08/06 05:31:31;;;;;;;;;;;16.40;73.00;;;;;;4872554;29;19924;-71
2022/08/06 05:33:58;;;;;;;;;;;16.40;73.10;;;;;;4872910;29;19924;-69
2022/08/06 05:36:25;;;;;;;;;;;16.40;73.20;;;;;;4876741;29;19934;-71
2022/08/06 05:38:51;;;;;;;;;;;16.50;73.30;;;;;;4877090;29;20051;-69
2022/08/06 05:41:18;;;;;;;;;;;16.40;73.40;;;;;;4870920;29;19931;-69
2022/08/06 05:43:45;;;;;;;;;;;16.40;73.40;;;;;;4878036;29;19927;-71
2022/08/06 05:46:16;;;;;;;;;;;16.50;73.40;;;;;;4868681;29;19940;-71
2022/08/06 05:48:44;;;;;;;;;;;16.40;73.50;;;;;;4869220;29;19967;-71
2022/08/06 05:51:12;;;;;;;;;;;16.50;73.50;;;;;;4873722;29;20282;-71
2022/08/06 05:53:42;;;;;;;;;;;16.50;73.50;;;;;;4873002;29;19924;-71
2022/08/06 05:56:10;;;;;;;;;;;16.60;73.50;;;;;;4867842;29;19930;-72
2022/08/06 05:58:40;;;;;;;;;;;16.60;73.50;;;;;;4873617;29;19923;-72
2022/08/06 06:01:08;;;;;;;;;;;16.60;73.50;;;;;;4865368;29;20281;-71
2022/08/06 06:03:38;;;;;;;;;;;16.60;73.60;;;;;;4868751;29;20339;-71
2022/08/06 06:06:05;;;;;;;;;;;16.70;73.50;;;;;;4876597;29;19934;-72
2022/08/06 06:08:31;;;;;;;;;;;16.70;73.50;;;;;;4873374;29;20366;-71
2022/08/06 06:10:58;;;;;;;;;;;16.70;73.50;;;;;;4881307;29;19927;-71
2022/08/06 06:13:25;;;;;;;;;;;16.70;73.50;;;;;;4878247;29;19927;-71
2022/08/06 06:15:54;;;;;;;;;;;16.80;73.20;;;;;;4876282;29;19975;-71
2022/08/06 06:18:25;;;;;;;;;;;16.80;73.20;;;;;;4872952;29;20386;-71
2022/08/06 06:20:57;;;;;;;;;;;16.80;73.10;;;;;;4873638;29;19928;-70
2022/08/06 06:23:26;;;;;;;;;;;16.90;72.90;;;;;;4880176;29;19942;-70
2022/08/06 06:26:00;;;;;;;;;;;16.90;72.80;;;;;;4876354;29;19924;-73
2022/08/06 06:28:29;;;;;;;;;;;17.00;72.70;;;;;;4883893;29;19963;-70
2022/08/06 06:30:58;;;;;;;;;;;17.10;72.70;;;;;;4870987;29;19928;-71
2022/08/06 06:33:29;;;;;;;;;;;17.10;72.70;;;;;;4870169;29;19934;-72
2022/08/06 06:35:59;;;;;;;;;;;17.20;72.40;;;;;;4881093;29;19923;-71
2022/08/06 06:38:44;;;;;;;;;;;17.30;72.10;;;;;;4871988;29;21732;-72
2022/08/06 06:41:14;;;;;;;;;;;17.40;71.80;;;;;;4877861;29;19928;-72
2022/08/06 06:43:44;;;;;;;;;;;17.50;71.20;;;;;;4879491;29;19932;-72
2022/08/06 06:46:14;;;;;;;;;;;17.70;70.80;;;;;;4874425;29;19992;-71
2022/08/06 06:48:42;;;;;;;;;;;17.80;70.90;;;;;;4874351;29;19935;-71
2022/08/06 06:51:11;;;;;;;;;;;18.00;69.90;;;;;;4883498;29;20405;-71
2022/08/06 06:53:41;;;;;;;;;;;18.20;69.50;;;;;;4872243;29;19935;-71
2022/08/06 06:56:08;;;;;;;;;;;18.20;69.20;;;;;;4878813;29;19935;-70
2022/08/06 06:58:37;;;;;;;;;;;18.40;69.20;;;;;;4879945;29;20342;-71
2022/08/06 07:01:05;;;;;;;;;;;18.60;68.60;;;;;;4874601;29;19976;-69
2022/08/06 07:03:33;;;;;;;;;;;18.70;68.30;;;;;;4870553;29;19932;-70
2022/08/06 07:06:00;;;;;;;;;;;18.80;68.30;;;;;;4877335;29;19923;-69
2022/08/06 07:08:29;;;;;;;;;;;18.90;67.70;;;;;;4881998;29;19923;-70
2022/08/06 07:10:57;;;;;;;;;;;19.00;66.50;;;;;;4877492;29;19924;-71
2022/08/06 07:13:25;;;;;;;;;;;19.10;66.30;;;;;;4878257;29;20010;-70
2022/08/06 07:15:52;;;;;;;;;;;19.20;66.70;;;;;;4873366;29;19931;-70
2022/08/06 07:18:20;;;;;;;;;;;19.30;65.10;;;;;;4878816;29;19931;-70
2022/08/06 07:20:47;;;;;;;;;;;19.40;64.50;;;;;;4876079;29;19979;-70
2022/08/06 07:23:16;;;;;;;;;;;19.50;64.30;;;;;;4872974;29;19931;-71
2022/08/06 07:25:46;;;;;;;;;;;19.60;63.50;;;;;;4872932;29;19927;-71
2022/08/06 07:28:14;;;;;;;;;;;19.80;63.30;;;;;;4880365;29;19923;-70
2022/08/06 07:30:42;;;;;;;;;;;19.90;62.80;;;;;;4877964;29;20409;-70
2022/08/06 07:33:09;;;;;;;;;;;20.00;62.80;;;;;;4874364;29;19930;-71
2022/08/06 07:35:36;;;;;;;;;;;20.20;61.80;;;;;;4882034;29;19928;-71
2022/08/06 07:38:04;;;;;;;;;;;20.40;61.70;;;;;;4871372;29;19930;-70
2022/08/06 07:40:32;;;;;;;;;;;20.50;60.90;;;;;;4871191;29;20010;-71
2022/08/06 07:43:01;;;;;;;;;;;20.70;60.90;;;;;;4870855;29;19957;-71
2022/08/06 07:45:32;;;;;;;;;;;20.90;60.20;;;;;;4870993;29;19935;-72
2022/08/06 07:48:01;;;;;;;;;;;21.10;59.40;;;;;;4872310;29;19927;-70
2022/08/06 07:50:28;;;;;;;;;;;21.20;58.70;;;;;;4876808;29;20011;-71
2022/08/06 07:52:55;;;;;;;;;;;21.40;57.50;;;;;;4877107;29;20366;-71
2022/08/06 07:55:24;;;;;;;;;;;21.50;57.10;;;;;;4872543;29;19981;-70
2022/08/06 07:57:52;;;;;;;;;;;21.70;56.00;;;;;;4875264;29;20321;-71
2022/08/06 08:00:20;;;;;;;;;;;21.90;55.50;;;;;;4871302;29;20438;-72
2022/08/06 08:06:17;;;;;;;;;;;22.00;53.50;;;;;;4874649;29;20370;-72
2022/08/06 08:08:19;;;;;;;;;;;22.10;53.90;;;;;;4879271;29;19924;-72
2022/08/06 08:10:46;;;;;;;;;;;22.20;53.70;;;;;;4877953;29;20351;-72
2022/08/06 08:13:13;;;;;;;;;;;22.30;52.40;;;;;;4869679;29;19963;-70
2022/08/06 08:15:42;;;;;;;;;;;22.50;52.80;;;;;;4868350;29;19992;-69
2022/08/06 08:18:09;;;;;;;;;;;22.60;52.80;;;;;;4872531;29;19923;-70
2022/08/06 08:20:38;;;;;;;;;;;22.60;52.30;;;;;;4878558;29;19924;-71
2022/08/06 08:23:05;;;;;;;;;;;22.70;51.50;;;;;;4872385;29;19923;-70
2022/08/06 08:25:32;;;;;;;;;;;22.80;50.60;;;;;;4873761;29;19959;-71
2022/08/06 08:28:00;;;;;;;;;;;22.90;49.80;;;;;;4866677;29;19956;-72
2022/08/06 08:30:26;;;;;;;;;;;23.10;50.00;;;;;;4871313;29;19930;-70
2022/08/06 08:32:54;;;;;;;;;;;23.20;49.60;;;;;;4874661;29;19924;-71
2022/08/06 08:35:21;;;;;;;;;;;23.20;49.80;;;;;;4867829;29;19931;-70
2022/08/06 08:37:48;;;;;;;;;;;23.30;49.60;;;;;;4872399;29;19930;-70
2022/08/06 08:40:15;;;;;;;;;;;23.20;48.90;;;;;;4868297;29;19979;-70
2022/08/06 08:42:44;;;;;;;;;;;23.00;47.20;;;;;;4872765;29;19979;-71
2022/08/06 08:45:11;;;;;;;;;;;22.90;47.60;;;;;;4872410;29;20022;-70
2022/08/06 08:47:38;;;;;;;;;;;22.90;47.70;;;;;;4868743;29;20360;-71
2022/08/06 08:50:07;;;;;;;;;;;22.90;47.10;;;;;;4874740;29;19943;-71
2022/08/06 08:52:34;;;;;;;;;;;23.00;46.50;;;;;;4876519;29;19924;-70
2022/08/06 08:55:03;;;;;;;;;;;23.00;46.00;;;;;;4874699;29;20285;-71
2022/08/06 08:57:32;;;;;;;;;;;23.10;45.60;;;;;;4869366;29;20402;-70
2022/08/06 08:59:59;;;;;;;;;;;23.10;46.00;;;;;;4871861;29;20401;-71
2022/08/06 09:02:26;;;;;;;;;;;23.30;45.80;;;;;;4868846;29;20055;-70
2022/08/06 09:04:54;;;;;;;;;;;23.40;45.70;;;;;;4873860;29;20338;-71
2022/08/06 09:07:23;;;;;;;;;;;23.50;45.40;;;;;;4874237;29;19928;-70
2022/08/06 09:09:50;;;;;;;;;;;23.40;45.90;;;;;;4876801;29;19928;-70
2022/08/06 09:12:17;;;;;;;;;;;23.50;45.10;;;;;;4876795;29;19924;-70
2022/08/06 09:14:46;;;;;;;;;;;23.40;44.80;;;;;;4868146;29;19938;-71
2022/08/06 09:17:13;;;;;;;;;;;23.20;44.80;;;;;;4871649;29;19932;-70
2022/08/06 09:19:39;;;;;;;;;;;23.30;44.70;;;;;;4872289;29;19954;-69
2022/08/06 09:22:06;;;;;;;;;;;23.30;44.80;;;;;;4873765;29;19934;-71
2022/08/06 09:24:34;;;;;;;;;;;23.60;44.90;;;;;;4874824;29;19932;-72
2022/08/06 09:27:02;;;;;;;;;;;23.80;44.10;;;;;;4871145;29;19928;-72
2022/08/06 09:29:29;;;;;;;;;;;23.90;44.40;;;;;;4876823;29;20023;-71
2022/08/06 09:31:55;;;;;;;;;;;24.00;43.90;;;;;;4865548;29;19924;-70
2022/08/06 09:34:22;;;;;;;;;;;24.10;43.70;;;;;;4871231;29;20418;-71
2022/08/06 09:36:49;;;;;;;;;;;24.10;42.20;;;;;;4872798;29;19927;-69
2022/08/06 09:39:16;;;;;;;;;;;24.00;42.40;;;;;;4870802;29;19931;-71
2022/08/06 09:41:48;;;;;;;;;;;23.90;42.80;;;;;;4873875;29;19931;-71
2022/08/06 09:44:15;;;;;;;;;;;23.70;42.40;;;;;;4875258;29;19928;-70
2022/08/06 09:46:42;;;;;;;;;;;23.60;42.50;;;;;;4875301;29;20018;-71
2022/08/06 09:49:10;;;;;;;;;;;23.80;42.40;;;;;;4868728;29;19927;-70
2022/08/06 09:51:37;;;;;;;;;;;24.00;42.30;;;;;;4869558;29;19956;-70
2022/08/06 09:54:05;;;;;;;;;;;24.10;42.30;;;;;;4876686;29;19927;-71
2022/08/06 09:56:32;;;;;;;;;;;24.10;41.90;;;;;;4871873;29;19923;-70
2022/08/06 09:59:01;;;;;;;;;;;24.30;41.30;;;;;;4871903;29;19924;-70
2022/08/06 10:01:28;;;;;;;;;;;24.50;41.10;;;;;;4867727;29;19930;-69
2022/08/06 10:03:57;;;;;;;;;;;24.60;40.50;;;;;;4873858;29;19924;-70
2022/08/06 10:06:25;;;;;;;;;;;24.80;40.60;;;;;;4871041;29;19923;-70
2022/08/06 10:09:07;;;;;;;;;;;24.80;40.70;;;;;;4873369;29;20402;-69
2022/08/06 10:11:34;;;;;;;;;;;25.00;40.70;;;;;;4871128;29;19930;-69
2022/08/06 10:14:02;;;;;;;;;;;25.10;40.90;;;;;;4874651;29;19931;-71
2022/08/06 10:16:29;;;;;;;;;;;25.30;40.50;;;;;;4870382;29;19923;-71
2022/08/06 10:18:57;;;;;;;;;;;25.30;40.20;;;;;;4869449;29;19931;-70
2022/08/06 10:21:25;;;;;;;;;;;25.50;39.90;;;;;;4874646;29;19932;-70
2022/08/06 10:23:53;;;;;;;;;;;25.50;40.00;;;;;;4874494;29;20026;-70
2022/08/06 10:26:25;;;;;;;;;;;25.60;39.50;;;;;;4872224;29;19927;-70
2022/08/06 10:28:52;;;;;;;;;;;25.80;39.40;;;;;;4870600;29;20023;-70
2022/08/06 10:31:21;;;;;;;;;;;25.90;39.50;;;;;;4865768;29;19923;-71
2022/08/06 10:33:50;;;;;;;;;;;26.00;39.50;;;;;;4873987;29;19924;-70
2022/08/06 10:36:19;;;;;;;;;;;26.00;38.70;;;;;;4876694;29;19924;-71
2022/08/06 10:38:49;;;;;;;;;;;26.00;38.80;;;;;;4874395;29;19924;-70
2022/08/06 10:41:16;;;;;;;;;;;26.00;38.90;;;;;;4872985;29;19928;-69
2022/08/06 10:43:45;;;;;;;;;;;25.80;38.50;;;;;;4877586;29;19923;-69
2022/08/06 10:46:15;;;;;;;;;;;25.70;38.40;;;;;;4871475;29;20394;-69
2022/08/06 10:48:45;;;;;;;;;;;25.90;38.50;;;;;;4868762;29;20559;-69
2022/08/06 10:51:13;;;;;;;;;;;26.00;38.30;;;;;;4869081;29;19976;-70
2022/08/06 10:53:41;;;;;;;;;;;26.00;38.00;;;;;;4876824;29;19923;-70
2022/08/06 10:56:08;;;;;;;;;;;26.10;38.00;;;;;;4875670;29;19931;-70
2022/08/06 10:58:36;;;;;;;;;;;26.10;37.60;;;;;;4870272;29;19939;-71
2022/08/06 11:01:04;;;;;;;;;;;26.20;37.70;;;;;;4868761;29;19951;-70
2022/08/06 11:03:36;;;;;;;;;;;26.30;37.70;;;;;;4875474;29;19923;-70
2022/08/06 11:06:11;;;;;;;;;;;26.40;37.60;;;;;;4876145;29;19930;-70
2022/08/06 11:08:43;;;;;;;;;;;26.40;37.70;;;;;;4874449;29;20289;-71
2022/08/06 11:11:18;;;;;;;;;;;26.50;36.80;;;;;;4877809;29;20010;-70
2022/08/06 11:13:50;;;;;;;;;;;26.50;36.90;;;;;;4877852;29;19924;-69
2022/08/06 11:16:23;;;;;;;;;;;26.50;35.80;;;;;;4872835;29;19928;-70
2022/08/06 11:19:00;;;;;;;;;;;26.50;36.20;;;;;;4873125;29;19923;-69
2022/08/06 11:21:38;;;;;;;;;;;26.50;36.80;;;;;;4873066;29;19931;-71
2022/08/06 11:24:05;;;;;;;;;;;26.60;36.90;;;;;;4870160;29;19971;-70
2022/08/06 11:26:33;;;;;;;;;;;26.60;36.30;;;;;;4879319;29;19927;-70
2022/08/06 11:29:01;;;;;;;;;;;26.70;37.10;;;;;;4870459;29;19928;-70
2022/08/06 11:31:32;;;;;;;;;;;26.70;37.20;;;;;;4870719;29;20015;-70
2022/08/06 11:33:59;;;;;;;;;;;26.80;36.60;;;;;;4865417;29;19934;-70
2022/08/06 11:36:27;;;;;;;;;;;26.90;35.00;;;;;;4879434;29;20390;-69
2022/08/06 11:38:59;;;;;;;;;;;26.90;34.80;;;;;;4876738;29;19927;-70
2022/08/06 11:41:27;;;;;;;;;;;26.90;34.70;;;;;;4861726;29;19924;-71
2022/08/06 11:44:06;;;;;;;;;;;27.00;35.10;;;;;;4867270;29;19927;-71
2022/08/06 11:46:34;;;;;;;;;;;27.00;35.40;;;;;;4876667;29;19991;-71
2022/08/06 11:49:16;;;;;;;;;;;27.00;34.80;;;;;;4875485;29;20016;-69
2022/08/06 11:51:43;;;;;;;;;;;27.00;35.00;;;;;;4865153;29;20022;-70
2022/08/06 11:54:14;;;;;;;;;;;27.00;34.60;;;;;;4869111;29;19923;-71
2022/08/06 11:57:00;;;;;;;;;;;27.00;34.70;;;;;;4876709;29;19923;-69
2022/08/06 11:59:29;;;;;;;;;;;27.00;34.20;;;;;;4875223;29;19923;-70
2022/08/06 12:01:56;;;;;;;;;;;27.00;34.60;;;;;;4866525;29;19946;-69
2022/08/06 12:04:40;;;;;;;;;;;27.00;34.60;;;;;;4875750;29;19923;-70
2022/08/06 12:07:17;;;;;;;;;;;27.00;34.60;;;;;;4877507;29;20010;-70
2022/08/06 12:09:46;;;;;;;;;;;27.00;33.70;;;;;;4875385;29;20030;-70
2022/08/06 12:12:31;;;;;;;;;;;27.00;33.20;;;;;;4872737;29;19923;-70
2022/08/06 12:14:59;;;;;;;;;;;27.10;33.00;;;;;;4873791;29;19980;-69
2022/08/06 12:17:27;;;;;;;;;;;27.10;33.50;;;;;;4868718;29;19976;-70
2022/08/06 12:19:54;;;;;;;;;;;26.90;33.90;;;;;;4874979;29;19935;-70
2022/08/06 12:22:21;;;;;;;;;;;26.90;33.30;;;;;;4871691;29;19928;-70
2022/08/06 12:24:51;;;;;;;;;;;27.00;34.00;;;;;;4875256;29;19963;-70
2022/08/06 12:27:19;;;;;;;;;;;27.00;33.80;;;;;;4874752;29;19934;-70
2022/08/06 12:29:45;;;;;;;;;;;27.00;32.80;;;;;;4872709;29;19924;-70
2022/08/06 12:32:22;;;;;;;;;;;27.00;33.10;;;;;;4875110;29;19965;-69
2022/08/06 12:34:49;;;;;;;;;;;27.00;33.00;;;;;;4873160;29;19935;-70
2022/08/06 12:37:15;;;;;;;;;;;27.00;33.00;;;;;;4874905;29;19974;-69
2022/08/06 12:42:28;;;;;;;;;;;27.10;33.40;;;;;;4869881;29;19923;-68
2022/08/06 12:44:55;;;;;;;;;;;27.10;33.20;;;;;;4876613;29;19928;-68
2022/08/06 12:47:22;;;;;;;;;;;27.10;33.20;;;;;;4874569;29;19923;-70
2022/08/06 12:49:49;;;;;;;;;;;27.10;33.40;;;;;;4876884;29;19924;-69
2022/08/06 12:52:17;;;;;;;;;;;27.00;33.50;;;;;;4877028;29;19931;-69
2022/08/06 12:54:44;;;;;;;;;;;27.00;33.40;;;;;;4871539;29;20045;-70
2022/08/06 12:57:19;;;;;;;;;;;27.00;33.10;;;;;;4873841;29;19971;-69
2022/08/06 12:59:48;;;;;;;;;;;27.00;32.60;;;;;;4874314;29;19931;-69
2022/08/06 13:02:15;;;;;;;;;;;26.90;32.70;;;;;;4863724;29;19931;-70
2022/08/06 13:04:45;;;;;;;;;;;26.90;31.90;;;;;;4872752;29;19950;-68
2022/08/06 13:07:12;;;;;;;;;;;27.00;32.50;;;;;;4873698;29;20366;-70
2022/08/06 13:09:39;;;;;;;;;;;27.00;33.20;;;;;;4872836;29;19927;-70
2022/08/06 13:12:13;;;;;;;;;;;27.10;31.70;;;;;;4874331;29;19935;-69
2022/08/06 13:14:50;;;;;;;;;;;27.10;31.50;;;;;;4874584;29;19931;-69
2022/08/06 13:17:17;;;;;;;;;;;27.00;31.80;;;;;;4869373;29;19923;-69
2022/08/06 13:19:53;;;;;;;;;;;27.00;32.40;;;;;;4869282;29;19930;-70
2022/08/06 13:22:19;;;;;;;;;;;26.90;31.60;;;;;;4871546;29;20015;-70
2022/08/06 13:24:46;;;;;;;;;;;26.80;31.70;;;;;;4873717;29;19924;-69
2022/08/06 13:27:13;;;;;;;;;;;26.70;31.60;;;;;;4874918;29;19939;-69
2022/08/06 13:29:59;;;;;;;;;;;26.60;31.70;;;;;;4868227;29;19951;-70
2022/08/06 13:32:26;;;;;;;;;;;26.60;31.50;;;;;;4871012;29;20413;-69
2022/08/06 13:34:54;;;;;;;;;;;26.60;32.10;;;;;;4874671;29;19928;-70
2022/08/06 13:37:36;;;;;;;;;;;26.60;31.80;;;;;;4867692;29;19924;-69
2022/08/06 13:40:03;;;;;;;;;;;26.50;31.30;;;;;;4872040;29;20014;-69
2022/08/06 13:42:30;;;;;;;;;;;26.50;31.10;;;;;;4878444;29;19924;-69
2022/08/06 13:44:58;;;;;;;;;;;26.50;32.10;;;;;;4874765;29;19931;-68
2022/08/06 13:47:28;;;;;;;;;;;26.50;32.20;;;;;;4873026;29;19935;-70
2022/08/06 13:49:55;;;;;;;;;;;26.50;31.50;;;;;;4872242;29;19971;-68
2022/08/06 13:52:21;;;;;;;;;;;26.40;31.50;;;;;;4871011;29;19932;-69
2022/08/06 13:54:48;;;;;;;;;;;26.30;31.20;;;;;;4868244;29;19939;-69
2022/08/06 13:57:16;;;;;;;;;;;26.30;31.70;;;;;;4871845;29;19932;-68
2022/08/06 13:59:42;;;;;;;;;;;26.20;31.30;;;;;;4872197;29;20006;-69
2022/08/06 14:02:11;;;;;;;;;;;26.20;31.90;;;;;;4871450;29;19927;-69
2022/08/06 14:04:38;;;;;;;;;;;26.20;31.70;;;;;;4870744;29;19931;-67
2022/08/06 14:07:05;;;;;;;;;;;26.20;31.60;;;;;;4877322;29;20272;-68
2022/08/06 14:09:31;;;;;;;;;;;26.20;31.80;;;;;;4873061;29;19924;-69
2022/08/06 14:12:00;;;;;;;;;;;26.20;31.80;;;;;;4874197;29;19924;-69
2022/08/06 14:14:27;;;;;;;;;;;26.10;31.50;;;;;;4873916;29;19963;-68
2022/08/06 14:16:54;;;;;;;;;;;26.10;31.50;;;;;;4869792;29;19924;-68
2022/08/06 14:19:23;;;;;;;;;;;26.10;30.90;;;;;;4870118;29;20014;-69
2022/08/06 14:21:49;;;;;;;;;;;26.00;31.40;;;;;;4870621;29;19924;-67
2022/08/06 14:24:16;;;;;;;;;;;25.90;31.40;;;;;;4871493;29;20385;-68
2022/08/06 14:26:43;;;;;;;;;;;25.90;31.30;;;;;;4877635;29;19923;-69
2022/08/06 14:29:10;;;;;;;;;;;25.90;31.40;;;;;;4875202;29;19972;-69